createdAt,value
2023-01-11T01:15:46.799Z,1.77
2023-01-11T01:18:13.858Z,2.18
2023-01-11T01:20:40.832Z,2.18
2023-01-11T01:23:07.976Z,2.20
2023-01-11T01:25:37.187Z,2.24
2023-01-11T01:28:04.436Z,2.27
2023-01-11T01:30:31.368Z,2.31
2023-01-11T01:32:58.336Z,2.36
2023-01-11T01:35:25.249Z,2.39
2023-01-11T01:37:52.195Z,2.48
2023-01-11T01:40:19.203Z,2.59
2023-01-11T01:42:46.177Z,2.63
2023-01-11T01:45:24.514Z,2.63
2023-01-11T01:47:58.407Z,2.62
2023-01-11T01:50:41.589Z,2.58
2023-01-11T01:53:13.056Z,2.57
2023-01-11T01:55:43.374Z,2.60
2023-01-11T01:58:11.997Z,2.60
2023-01-11T02:00:40.495Z,2.54
2023-01-11T02:03:07.486Z,2.44
2023-01-11T02:05:34.526Z,2.37
2023-01-11T02:08:01.510Z,2.37
2023-01-11T02:10:29.133Z,2.38
2023-01-11T02:12:59.075Z,2.35
2023-01-11T02:15:26.158Z,2.34
2023-01-11T02:17:53.181Z,2.33
2023-01-11T02:20:42.233Z,2.33
2023-01-11T02:23:36.665Z,2.34
2023-01-11T02:26:36.137Z,2.38
2023-01-11T02:29:38.678Z,2.36
2023-01-11T02:32:27.248Z,2.35
2023-01-11T02:35:07.830Z,2.34
2023-01-11T02:38:01.913Z,2.38
2023-01-11T02:40:51.130Z,2.43
2023-01-11T02:43:47.547Z,2.41
2023-01-11T02:46:23.366Z,2.37
2023-01-11T02:49:01.980Z,2.34
2023-01-11T02:51:35.115Z,2.30
2023-01-11T02:54:04.658Z,2.30
2023-01-11T02:56:33.812Z,2.34
2023-01-11T02:59:01.725Z,2.34
2023-01-11T03:01:28.757Z,2.33
2023-01-11T03:03:56.259Z,2.31
2023-01-11T03:06:27.621Z,2.29
2023-01-11T03:09:01.377Z,2.37
2023-01-11T03:12:09.361Z,2.49
2023-01-11T03:14:49.232Z,2.55
2023-01-11T03:17:22.892Z,2.52
2023-01-11T03:19:54.658Z,2.49
2023-01-11T03:22:59.293Z,2.46
2023-01-11T03:25:43.070Z,2.55
2023-01-11T03:28:36.179Z,2.65
2023-01-11T03:31:21.496Z,2.66
2023-01-11T03:34:02.852Z,2.63
2023-01-11T03:36:42.201Z,2.60
2023-01-11T03:39:19.754Z,2.57
2023-01-11T03:41:46.847Z,2.64
2023-01-11T03:44:14.635Z,2.72
2023-01-11T03:46:44.745Z,2.74
2023-01-11T03:49:14.441Z,2.73
2023-01-11T03:51:45.255Z,2.70
2023-01-11T03:54:14.394Z,2.68
2023-01-11T03:57:02.351Z,2.69
2023-01-11T03:59:29.427Z,2.72
2023-01-11T04:01:56.468Z,2.73
2023-01-11T04:04:23.794Z,2.74
2023-01-11T04:06:50.921Z,2.74
2023-01-11T04:09:17.823Z,2.71
2023-01-11T04:11:45.089Z,2.73
2023-01-11T04:14:12.025Z,2.78
2023-01-11T04:16:39.001Z,2.79
2023-01-11T04:19:05.963Z,2.77
2023-01-11T04:21:33.096Z,2.74
2023-01-11T04:23:59.951Z,2.70
2023-01-11T04:26:27.048Z,2.76
2023-01-11T04:28:54.514Z,2.84
2023-01-11T04:31:21.656Z,2.87
2023-01-11T04:33:48.605Z,2.85
2023-01-11T04:36:15.657Z,2.81
2023-01-11T04:38:42.629Z,2.80
2023-01-11T04:41:28.094Z,2.85
2023-01-11T04:43:56.390Z,2.95
2023-01-11T04:46:23.947Z,2.97
2023-01-11T04:48:51.244Z,2.92
2023-01-11T04:51:18.210Z,2.87
2023-01-11T04:53:47.293Z,2.82
2023-01-11T04:56:14.290Z,2.87
2023-01-11T04:58:41.313Z,2.96
2023-01-11T05:01:10.112Z,3.02
2023-01-11T05:03:37.171Z,3.04
2023-01-11T07:23:29.305Z,1.35
2023-01-11T07:25:56.350Z,1.74
2023-01-11T07:28:23.203Z,1.73
2023-01-11T07:30:58.563Z,1.71
2023-01-11T07:33:26.156Z,1.68
2023-01-11T07:35:53.181Z,1.67
2023-01-11T07:38:20.125Z,1.70
2023-01-11T07:40:47.063Z,1.76
2023-01-11T07:43:19.142Z,1.79
2023-01-11T07:45:49.593Z,1.74
2023-01-11T07:48:24.853Z,1.67
2023-01-11T07:50:52.685Z,1.57
2023-01-11T07:53:19.823Z,1.55
2023-01-11T07:55:47.515Z,1.58
2023-01-11T07:58:14.723Z,1.59
2023-01-11T08:00:41.859Z,1.60
2023-01-11T08:03:09.128Z,1.60
2023-01-11T08:05:36.371Z,1.61
2023-01-11T08:08:03.916Z,1.67
2023-01-11T08:10:30.805Z,1.73
2023-01-11T08:13:16.952Z,1.67
2023-01-11T08:15:44.007Z,1.57
2023-01-11T08:18:12.102Z,1.54
2023-01-11T08:20:39.967Z,1.56
2023-01-11T08:23:08.235Z,1.58
2023-01-11T08:25:35.189Z,1.52
2023-01-11T08:28:02.918Z,1.45
2023-01-11T08:30:29.982Z,1.37
2023-01-11T08:32:57.722Z,1.38
2023-01-11T08:35:25.689Z,1.46
2023-01-11T08:37:52.736Z,1.43
2023-01-11T08:40:21.061Z,1.34
2023-01-11T08:42:58.585Z,1.27
2023-01-11T08:45:25.737Z,1.28
2023-01-11T08:47:57.442Z,1.29
2023-01-11T08:50:26.761Z,1.25
2023-01-11T08:52:53.941Z,1.18
2023-01-11T08:55:20.795Z,1.09
2023-01-11T08:57:47.740Z,1.10
2023-01-11T09:00:15.638Z,1.09
2023-01-11T09:02:42.723Z,1.05
2023-01-11T09:05:12.278Z,0.99
2023-01-11T09:07:41.480Z,0.93
2023-01-11T09:10:09.011Z,0.88
2023-01-11T09:12:36.146Z,0.85
2023-01-11T09:15:06.205Z,0.81
2023-01-11T09:17:33.855Z,0.77
2023-01-11T09:20:00.790Z,0.72
2023-01-11T09:22:27.667Z,0.68
2023-01-11T09:24:55.624Z,0.68
2023-01-11T09:27:22.427Z,0.63
2023-01-11T09:29:49.369Z,0.54
2023-01-11T09:32:16.372Z,0.54
2023-01-11T09:34:46.686Z,0.62
2023-01-11T09:37:14.567Z,0.64
2023-01-11T09:39:42.316Z,0.60
2023-01-11T09:42:39.163Z,0.54
2023-01-11T09:45:18.871Z,0.51
2023-01-11T09:48:11.809Z,0.52
2023-01-11T09:50:45.845Z,0.48
2023-01-11T09:53:18.728Z,0.43
2023-01-11T09:55:47.245Z,0.46
2023-01-11T09:58:29.405Z,0.52
2023-01-11T10:01:22.101Z,0.57
2023-01-11T10:04:20.609Z,0.54
2023-01-11T10:06:58.845Z,0.52
2023-01-11T13:28:39.328Z,0.88
2023-01-11T13:31:08.091Z,1.22
2023-01-11T13:33:36.277Z,1.22
2023-01-11T13:36:22.808Z,1.13
2023-01-11T13:45:17.283Z,1.15
2023-01-11T13:47:47.240Z,1.07
2023-01-11T13:50:34.863Z,1.01
2023-01-11T13:53:06.274Z,0.94
2023-01-11T13:56:19.361Z,0.86
2023-01-11T13:59:24.944Z,0.76
2023-01-11T14:02:04.979Z,0.68
2023-01-11T14:04:50.357Z,0.68
2023-01-11T14:08:01.179Z,0.70
2023-01-11T14:10:46.373Z,0.73
2023-01-11T14:13:48.359Z,0.66
2023-01-11T14:16:19.500Z,0.61
2023-01-11T14:18:51.808Z,0.59
2023-01-11T14:21:23.839Z,0.54
2023-01-11T14:23:52.216Z,0.47
2023-01-11T14:26:57.333Z,0.40
2023-01-11T14:29:52.299Z,0.33
2023-01-11T14:32:35.376Z,0.34
2023-01-11T14:35:34.353Z,0.35
2023-01-11T14:38:32.594Z,0.30
2023-01-11T14:41:45.921Z,0.24
2023-01-11T14:44:37.954Z,0.20
2023-01-11T14:47:42.217Z,0.29
2023-01-11T14:50:20.172Z,0.33
2023-01-11T14:52:58.087Z,0.32
2023-01-11T14:55:30.345Z,0.28
2023-01-11T14:57:57.443Z,0.22
2023-01-11T15:00:24.389Z,0.21
2023-01-11T15:03:01.115Z,0.19
2023-01-11T15:05:31.663Z,0.10
2023-01-11T15:08:23.944Z,-0.04
2023-01-11T15:11:07.865Z,-0.07
2023-01-11T15:13:44.949Z,-0.00
2023-01-11T15:16:33.812Z,0.01
2023-01-11T15:19:06.966Z,0.01
2023-01-11T15:21:35.041Z,-0.00
2023-01-11T15:24:01.953Z,0.01
2023-01-11T15:26:29.187Z,0.04
2023-01-11T15:28:59.878Z,0.02
2023-01-11T15:31:48.293Z,-0.04
2023-01-11T15:34:27.704Z,-0.08
2023-01-11T15:37:02.694Z,-0.03
2023-01-11T15:40:14.113Z,0.03
2023-01-11T15:42:54.131Z,0.02
2023-01-11T15:45:27.697Z,-0.06
2023-01-11T15:48:06.941Z,-0.09
2023-01-11T15:50:58.504Z,-0.01
2023-01-11T15:53:33.967Z,0.02
2023-01-11T15:56:21.093Z,-0.01
2023-01-11T15:59:14.337Z,-0.10
2023-01-11T16:02:05.645Z,-0.11
2023-01-11T18:57:10.541Z,-0.77
2023-01-11T18:59:37.791Z,-0.40
2023-01-11T19:02:24.552Z,-0.36
2023-01-11T19:04:52.341Z,-0.38
2023-01-11T19:07:19.422Z,-0.46
2023-01-11T19:09:46.506Z,-0.44
2023-01-11T19:12:16.031Z,-0.42
2023-01-11T19:14:43.310Z,-0.47
2023-01-11T19:17:13.510Z,-0.53
2023-01-11T19:19:40.799Z,-0.57
2023-01-11T19:22:10.459Z,-0.54
2023-01-11T19:24:37.690Z,-0.55
2023-01-11T19:27:04.876Z,-0.60
2023-01-11T19:29:31.988Z,-0.69
2023-01-11T19:31:59.217Z,-0.69
2023-01-11T19:34:26.315Z,-0.63
2023-01-11T19:36:53.477Z,-0.59
2023-01-11T19:39:20.511Z,-0.61
2023-01-11T19:42:03.333Z,-0.64
2023-01-11T19:44:32.076Z,-0.65
2023-01-11T19:47:10.935Z,-0.59
2023-01-11T19:49:40.134Z,-0.57
2023-01-11T19:52:13.551Z,-0.59
2023-01-11T19:54:44.207Z,-0.63
2023-01-11T19:57:12.629Z,-0.60
2023-01-11T19:59:39.866Z,-0.56
2023-01-11T20:02:07.652Z,-0.56
2023-01-11T20:04:35.097Z,-0.59
2023-01-11T20:07:02.276Z,-0.62
2023-01-11T20:09:29.806Z,-0.64
2023-01-11T20:11:59.029Z,-0.58
2023-01-11T20:20:19.736Z,-0.45
2023-01-11T20:22:46.756Z,-0.48
2023-01-11T20:25:13.984Z,-0.44
2023-01-11T20:27:41.132Z,-0.39
2023-01-11T20:30:09.682Z,-0.34
2023-01-11T20:32:41.830Z,-0.36
2023-01-11T20:42:47.366Z,-0.33
2023-01-11T20:45:14.424Z,-0.39
2023-01-11T20:47:41.699Z,-0.47
2023-01-11T20:50:09.413Z,-0.55
2023-01-11T20:52:38.975Z,-0.51
2023-01-11T20:55:06.855Z,-0.46
2023-01-11T20:57:34.025Z,-0.49
2023-01-11T21:00:01.215Z,-0.53
2023-01-11T21:02:28.607Z,-0.56
2023-01-11T21:04:57.248Z,-0.58
2023-01-11T21:07:24.399Z,-0.56
2023-01-11T21:09:51.877Z,-0.52
2023-01-11T21:12:19.940Z,-0.54
2023-01-11T21:14:47.233Z,-0.59
2023-01-11T21:17:14.613Z,-0.64
2023-01-11T21:19:47.550Z,-0.64
2023-01-11T21:22:14.564Z,-0.59
2023-01-11T21:24:41.588Z,-0.56
2023-01-11T21:27:08.739Z,-0.59
2023-01-11T21:29:36.092Z,-0.65
2023-01-11T21:32:03.148Z,-0.68
2023-01-11T21:34:30.270Z,-0.66
2023-01-11T21:36:57.393Z,-0.67
2023-01-11T21:39:24.721Z,-0.72
